Time;durP1;ratioP1;P1;durP2;ratioP2;P2;SDS_P1;SDS_P2;PMS_P1;PMS_P2;Temp;Humidity;BMP_temperature;BMP_pressure;BME280_temperature;BME280_humidity;BME280_pressure;Samples;Min_cycle;Max_cycle;Signal;HPM_P1;HPM_P2
2022/10/19 00:01:15;;;;;;;;;;;;;;;12.40;74.36;102374.75;5005996;28;20064;-73
2022/10/19 00:03:41;;;;;;;;;;;;;;;12.47;74.43;102366.06;5004739;28;19928;-73
2022/10/19 00:06:29;;;;;;;;;;;;;;;12.50;74.32;102367.78;5003550;28;19921;-73
2022/10/19 00:08:57;;;;;;;;;;;;;;;12.57;74.65;102370.38;4995242;28;20020;-73
2022/10/19 00:11:23;;;;;;;;;;;;;;;12.46;74.95;102363.44;5008225;28;20004;-73
2022/10/19 00:13:48;;;;;;;;;;;;;;;12.49;74.65;102360.81;5005897;28;20059;-73
2022/10/19 00:16:15;;;;;;;;;;;;;;;12.47;75.17;102368.66;5004915;28;19933;-73
2022/10/19 00:18:42;;;;;;;;;;;;;;;12.58;74.22;102355.59;5005683;28;19929;-73
2022/10/19 00:21:08;;;;;;;;;;;;;;;12.54;74.62;102365.19;5005325;28;19925;-72
2022/10/19 00:23:34;;;;;;;;;;;;;;;12.51;75.13;102367.75;5002985;28;19914;-73
2022/10/19 00:25:59;;;;;;;;;;;;;;;12.59;74.65;102363.44;5004226;28;19937;-73
2022/10/19 00:28:25;;;;;;;;;;;;;;;12.56;74.83;102360.84;5002101;28;19934;-73
2022/10/19 00:30:50;;;;;;;;;;;;;;;12.56;75.32;102359.97;5004458;28;19983;-73
2022/10/19 00:33:21;;;;;;;;;;;;;;;12.51;75.66;102364.31;5006524;28;20015;-73
2022/10/19 00:35:48;;;;;;;;;;;;;;;12.63;75.12;102366.91;5004422;28;19925;-73
2022/10/19 00:38:14;;;;;;;;;;;;;;;12.61;75.80;102371.25;5007824;28;20453;-73
2022/10/19 00:40:39;;;;;;;;;;;;;;;12.54;75.13;102373.00;5006520;28;19925;-73
2022/10/19 00:43:15;;;;;;;;;;;;;;;12.62;75.83;102368.66;5011861;28;19925;-73
2022/10/19 00:45:40;;;;;;;;;;;;;;;12.64;75.22;102363.41;5004012;28;19955;-73
2022/10/19 00:48:06;;;;;;;;;;;;;;;12.60;75.81;102367.75;5007364;28;19929;-73
2022/10/19 00:50:31;;;;;;;;;;;;;;;12.66;75.95;102372.09;5010327;28;19932;-73
2022/10/19 00:52:56;;;;;;;;;;;;;;;12.61;75.81;102376.44;5006870;28;19996;-73
2022/10/19 00:55:22;;;;;;;;;;;;;;;12.53;74.83;102383.44;5008596;28;20313;-73
2022/10/19 00:57:48;;;;;;;;;;;;;;;12.56;75.58;102389.53;5008051;28;19937;-73
2022/10/19 01:00:13;;;;;;;;;;;;;;;12.57;75.75;102380.81;5008783;28;19930;-73
2022/10/19 01:02:38;;;;;;;;;;;;;;;12.58;75.29;102381.69;5008204;28;20807;-73
2022/10/19 01:05:04;;;;;;;;;;;;;;;12.61;74.92;102386.88;5009271;28;19975;-73
2022/10/19 01:07:29;;;;;;;;;;;;;;;12.51;74.97;102385.16;4990349;28;19937;-73
2022/10/19 01:09:54;;;;;;;;;;;;;;;12.52;74.47;102381.66;5008996;28;19928;-73
2022/10/19 01:12:20;;;;;;;;;;;;;;;12.46;75.47;102385.16;5009803;28;20272;-73
2022/10/19 01:15:04;;;;;;;;;;;;;;;12.54;75.57;102378.22;5010295;28;19932;-72
2022/10/19 01:17:49;;;;;;;;;;;;;;;12.55;75.45;102373.88;5011992;28;19921;-74
2022/10/19 01:20:30;;;;;;;;;;;;;;;12.45;75.42;102380.81;5003744;28;20626;-73
2022/10/19 01:23:14;;;;;;;;;;;;;;;12.56;75.41;102375.63;5007440;28;19926;-73
2022/10/19 01:25:48;;;;;;;;;;;;;;;12.44;75.06;102370.41;5007958;28;19925;-73
2022/10/19 01:28:25;;;;;;;;;;;;;;;12.41;74.75;102371.28;5004473;28;19925;-73
2022/10/19 01:31:09;;;;;;;;;;;;;;;12.43;74.87;102366.94;5009163;28;19928;-73
2022/10/19 01:33:40;;;;;;;;;;;;;;;12.50;74.32;102362.56;5002316;28;19964;-73
2022/10/19 01:36:26;;;;;;;;;;;;;;;12.62;73.63;102357.34;5005615;28;19925;-73
2022/10/19 01:39:10;;;;;;;;;;;;;;;12.50;74.72;102358.22;4980019;28;19980;-73
2022/10/19 01:41:58;;;;;;;;;;;;;;;12.51;74.47;102351.28;4989830;28;19992;-74
2022/10/19 01:44:37;;;;;;;;;;;;;;;12.55;74.76;102347.81;4983616;28;20004;-73
2022/10/19 01:47:04;;;;;;;;;;;;;;;12.51;74.31;102338.25;5018588;28;20467;-73
2022/10/19 01:49:37;;;;;;;;;;;;;;;12.49;74.36;102340.84;5007824;28;19925;-73
2022/10/19 01:52:04;;;;;;;;;;;;;;;12.48;74.42;102340.88;5006372;28;19991;-73
2022/10/19 01:54:33;;;;;;;;;;;;;;;12.45;74.10;102335.66;5005843;28;19925;-73
2022/10/19 01:56:59;;;;;;;;;;;;;;;12.47;74.21;102333.91;5007660;28;20402;-73
2022/10/19 01:59:25;;;;;;;;;;;;;;;12.45;74.26;102325.25;5008284;28;20059;-73
2022/10/19 02:01:52;;;;;;;;;;;;;;;12.52;74.25;102332.13;5005977;28;20474;-73
2022/10/19 02:04:18;;;;;;;;;;;;;;;12.54;74.28;102322.63;5008219;28;19930;-73
2022/10/19 02:06:43;;;;;;;;;;;;;;;12.57;74.00;102328.66;5008298;28;19929;-73
2022/10/19 02:09:09;;;;;;;;;;;;;;;12.45;74.64;102327.84;5008658;28;19928;-74
2022/10/19 02:11:36;;;;;;;;;;;;;;;12.58;73.76;102327.81;5008296;28;19933;-73
2022/10/19 02:14:05;;;;;;;;;;;;;;;12.59;73.36;102326.06;5007305;28;19948;-73
2022/10/19 02:16:37;;;;;;;;;;;;;;;12.51;73.27;102331.28;5010795;28;19929;-73
2022/10/19 02:19:04;;;;;;;;;;;;;;;12.47;73.63;102324.34;5005298;28;19937;-73
2022/10/19 02:21:30;;;;;;;;;;;;;;;12.46;73.49;102326.94;5006200;28;20389;-73
2022/10/19 02:23:55;;;;;;;;;;;;;;;12.34;73.74;102317.44;5005433;28;19951;-73
2022/10/19 02:26:21;;;;;;;;;;;;;;;12.36;74.67;102326.16;5008298;28;19925;-74
2022/10/19 02:28:47;;;;;;;;;;;;;;;12.43;74.33;102327.84;5008459;28;19949;-73
2022/10/19 02:31:12;;;;;;;;;;;;;;;12.45;74.23;102323.47;5008653;28;19929;-74
2022/10/19 02:33:37;;;;;;;;;;;;;;;12.42;74.51;102320.88;5004274;28;19933;-73
2022/10/19 02:36:03;;;;;;;;;;;;;;;12.50;74.21;102321.75;5005201;28;20309;-73
2022/10/19 02:38:28;;;;;;;;;;;;;;;12.38;74.48;102313.09;5007561;28;19930;-73
2022/10/19 02:41:02;;;;;;;;;;;;;;;12.52;74.39;102319.09;5009154;28;19937;-73
2022/10/19 02:43:30;;;;;;;;;;;;;;;12.45;74.13;102310.44;5011800;28;19936;-73
2022/10/19 02:46:00;;;;;;;;;;;;;;;12.43;75.21;102311.31;5007279;28;19978;-73
2022/10/19 02:48:27;;;;;;;;;;;;;;;12.36;75.09;102312.25;5004300;28;19982;-73
2022/10/19 02:50:53;;;;;;;;;;;;;;;12.34;75.01;102303.53;5006267;28;20004;-73
2022/10/19 02:53:18;;;;;;;;;;;;;;;12.34;74.26;102307.03;5006498;28;19921;-73
2022/10/19 02:55:45;;;;;;;;;;;;;;;12.38;73.89;102311.34;5007665;28;20382;-73
2022/10/19 02:58:11;;;;;;;;;;;;;;;12.48;74.35;102312.19;4995137;28;19936;-73
2022/10/19 03:00:36;;;;;;;;;;;;;;;12.37;74.04;102306.13;5005302;28;20452;-73
2022/10/19 03:03:02;;;;;;;;;;;;;;;12.36;73.95;102309.63;5004796;28;20387;-73
2022/10/19 03:05:27;;;;;;;;;;;;;;;12.36;74.14;102307.03;5007586;28;19917;-73
2022/10/19 03:07:53;;;;;;;;;;;;;;;12.41;73.05;102307.88;5007206;28;19948;-73
2022/10/19 03:10:18;;;;;;;;;;;;;;;12.36;73.16;102302.69;5007225;28;20476;-73
2022/10/19 03:12:43;;;;;;;;;;;;;;;12.29;73.07;102310.53;5008304;28;19929;-73
2022/10/19 03:15:13;;;;;;;;;;;;;;;12.35;73.02;102306.16;4991186;28;20294;-73
2022/10/19 03:17:38;;;;;;;;;;;;;;;12.25;71.81;102296.63;5006358;28;19926;-73
2022/10/19 03:20:04;;;;;;;;;;;;;;;12.28;71.99;102295.75;5005016;28;20465;-73
2022/10/19 03:22:29;;;;;;;;;;;;;;;12.38;71.86;102292.25;4998325;28;19930;-73
2022/10/19 03:24:54;;;;;;;;;;;;;;;12.38;71.92;102289.63;5005769;28;19921;-73
2022/10/19 03:27:19;;;;;;;;;;;;;;;12.46;72.31;102286.13;5006377;28;19932;-73
2022/10/19 03:29:45;;;;;;;;;;;;;;;12.37;72.38;102287.91;5007723;28;20387;-73
2022/10/19 03:32:10;;;;;;;;;;;;;;;12.29;72.30;102293.16;5003630;28;19950;-73
2022/10/19 03:34:35;;;;;;;;;;;;;;;12.27;72.24;102292.31;5001579;28;19929;-73
2022/10/19 03:37:01;;;;;;;;;;;;;;;12.33;72.25;102286.19;4989557;28;19925;-73
2022/10/19 03:39:26;;;;;;;;;;;;;;;12.32;72.09;102289.66;5007179;28;19926;-73
2022/10/19 03:41:51;;;;;;;;;;;;;;;12.29;72.01;102285.34;5005459;28;19925;-73
2022/10/19 03:44:16;;;;;;;;;;;;;;;12.30;72.53;102284.47;5009027;28;19929;-72
2022/10/19 03:46:42;;;;;;;;;;;;;;;12.32;71.96;102279.25;5007248;28;19933;-73
2022/10/19 03:49:08;;;;;;;;;;;;;;;12.33;72.27;102284.47;4987865;28;19922;-73
2022/10/19 03:51:33;;;;;;;;;;;;;;;12.37;72.12;102286.16;5006181;28;20419;-73
2022/10/19 03:54:00;;;;;;;;;;;;;;;12.23;72.04;102284.47;5005203;28;19929;-73
2022/10/19 03:56:26;;;;;;;;;;;;;;;12.32;71.99;102282.72;5003476;28;19925;-73
2022/10/19 03:58:53;;;;;;;;;;;;;;;12.32;71.39;102287.94;5005928;28;19956;-73
2022/10/19 04:01:19;;;;;;;;;;;;;;;12.19;71.88;102285.34;5004779;28;19975;-73
2022/10/19 04:03:45;;;;;;;;;;;;;;;12.31;71.82;102285.31;5005658;28;19925;-73
2022/10/19 04:06:12;;;;;;;;;;;;;;;12.27;71.93;102279.28;5003606;28;19936;-73
2022/10/19 04:08:37;;;;;;;;;;;;;;;12.34;72.23;102288.78;4997804;28;20512;-73
2022/10/19 04:11:07;;;;;;;;;;;;;;;12.35;72.37;102287.91;5012354;28;19921;-73
2022/10/19 04:13:33;;;;;;;;;;;;;;;12.31;72.31;102286.19;5005807;28;19921;-73
2022/10/19 04:15:58;;;;;;;;;;;;;;;12.35;71.58;102293.13;5008239;28;19933;-74
2022/10/19 04:18:26;;;;;;;;;;;;;;;12.40;71.79;102291.34;5007318;28;19930;-73
2022/10/19 04:20:59;;;;;;;;;;;;;;;12.48;71.79;102301.78;5006368;28;19918;-73
2022/10/19 04:23:28;;;;;;;;;;;;;;;12.43;71.80;102301.78;5004347;28;19929;-73
2022/10/19 04:25:59;;;;;;;;;;;;;;;12.45;71.80;102300.00;5002840;28;19964;-73
2022/10/19 04:28:25;;;;;;;;;;;;;;;12.36;71.71;102299.22;5000118;28;19984;-73
2022/10/19 04:30:50;;;;;;;;;;;;;;;12.35;71.51;102297.47;5006033;28;19971;-73
2022/10/19 04:33:15;;;;;;;;;;;;;;;12.24;72.04;102302.72;5006802;28;19969;-73
2022/10/19 04:35:41;;;;;;;;;;;;;;;12.26;71.53;102295.75;5008313;28;19925;-73
2022/10/19 04:38:06;;;;;;;;;;;;;;;12.14;70.87;102298.41;5005207;28;19929;-73
2022/10/19 04:40:33;;;;;;;;;;;;;;;12.21;70.94;102287.09;4990612;28;19933;-73
2022/10/19 04:42:58;;;;;;;;;;;;;;;12.16;71.11;102287.97;5003462;28;19937;-73
2022/10/19 04:45:23;;;;;;;;;;;;;;;12.15;71.08;102294.06;5008685;28;19918;-73
2022/10/19 04:47:49;;;;;;;;;;;;;;;12.21;71.11;102294.94;5006430;28;19998;-73
2022/10/19 04:50:14;;;;;;;;;;;;;;;12.16;70.93;102294.06;5006326;28;19936;-73
2022/10/19 04:52:39;;;;;;;;;;;;;;;12.02;70.90;102294.09;5007260;28;19929;-73
2022/10/19 04:55:04;;;;;;;;;;;;;;;12.05;71.31;102291.50;5006750;28;20664;-73
2022/10/19 04:57:30;;;;;;;;;;;;;;;12.10;70.89;102297.53;5005952;28;19918;-73
2022/10/19 04:59:55;;;;;;;;;;;;;;;12.11;70.89;102294.09;5003867;28;19937;-73
2022/10/19 05:02:20;;;;;;;;;;;;;;;11.96;71.28;102294.13;5003888;28;20073;-73
2022/10/19 05:04:49;;;;;;;;;;;;;;;12.08;71.14;102298.44;5004864;28;19921;-73
2022/10/19 05:07:15;;;;;;;;;;;;;;;12.06;71.15;102300.19;5003944;28;19960;-73
2022/10/19 05:09:40;;;;;;;;;;;;;;;12.03;71.24;102289.78;5005086;28;19975;-73
2022/10/19 05:12:06;;;;;;;;;;;;;;;12.05;71.52;102299.31;5002615;28;19922;-73
2022/10/19 05:14:32;;;;;;;;;;;;;;;11.91;70.47;102290.66;5002811;28;19940;-73
2022/10/19 05:16:57;;;;;;;;;;;;;;;11.89;71.08;102286.34;5004638;28;20519;-73
2022/10/19 05:19:22;;;;;;;;;;;;;;;11.92;71.07;102289.78;5006564;28;20036;-73
2022/10/19 05:21:48;;;;;;;;;;;;;;;11.88;70.24;102287.19;5006005;28;19936;-73
2022/10/19 05:24:13;;;;;;;;;;;;;;;11.91;70.96;102285.47;5002388;28;19922;-73
2022/10/19 05:26:38;;;;;;;;;;;;;;;11.85;71.65;102280.28;5008598;28;20411;-73
2022/10/19 05:29:03;;;;;;;;;;;;;;;11.85;71.23;102279.41;5011754;28;19952;-73
2022/10/19 05:31:30;;;;;;;;;;;;;;;11.96;69.87;102277.63;5008384;28;19968;-73
2022/10/19 05:33:56;;;;;;;;;;;;;;;11.87;69.96;102282.84;5004957;28;20540;-73
2022/10/19 05:36:25;;;;;;;;;;;;;;;11.80;70.50;102283.75;5007910;28;19933;-73
2022/10/19 05:38:51;;;;;;;;;;;;;;;11.81;70.07;102278.53;5004492;28;19929;-73
2022/10/19 05:41:17;;;;;;;;;;;;;;;11.84;69.79;102264.63;5009338;28;19918;-73
2022/10/19 05:43:46;;;;;;;;;;;;;;;11.88;69.86;102267.25;5005761;28;20306;-73
2022/10/19 05:46:13;;;;;;;;;;;;;;;11.93;69.80;102267.22;5005226;28;20016;-78
2022/10/19 05:48:39;;;;;;;;;;;;;;;11.95;69.28;102270.66;5007315;28;20028;-78
2022/10/19 05:51:06;;;;;;;;;;;;;;;11.86;69.89;102270.72;5009935;28;19995;-77
2022/10/19 05:53:32;;;;;;;;;;;;;;;11.95;70.40;102275.88;5002558;28;19929;-73
2022/10/19 05:55:57;;;;;;;;;;;;;;;11.95;70.48;102271.53;5002503;28;19931;-73
2022/10/19 05:58:22;;;;;;;;;;;;;;;11.95;71.03;102276.75;5006386;28;20376;-78
2022/10/19 06:00:54;;;;;;;;;;;;;;;11.89;72.26;102275.94;5004304;28;20284;-77
2022/10/19 06:03:22;;;;;;;;;;;;;;;11.98;71.69;102273.25;5007920;28;19929;-79
2022/10/19 06:05:48;;;;;;;;;;;;;;;11.93;72.61;102268.09;5005705;28;20422;-77
2022/10/19 06:08:14;;;;;;;;;;;;;;;11.86;72.30;102270.72;5005840;28;20012;-78
2022/10/19 06:10:39;;;;;;;;;;;;;;;11.84;71.72;102260.28;5007652;28;19959;-78
2022/10/19 06:13:05;;;;;;;;;;;;;;;11.96;70.44;102262.00;4995834;28;19925;-79
2022/10/19 06:15:34;;;;;;;;;;;;;;;11.97;70.31;102263.75;5005108;28;19944;-78
2022/10/19 06:17:59;;;;;;;;;;;;;;;11.80;69.97;102263.78;5003619;28;19968;-78
2022/10/19 06:20:27;;;;;;;;;;;;;;;11.80;70.08;102268.97;5008646;28;19964;-79
2022/10/19 06:22:53;;;;;;;;;;;;;;;11.82;70.15;102272.47;5006675;28;19921;-78
2022/10/19 06:25:18;;;;;;;;;;;;;;;11.87;69.85;102277.66;4995080;28;19992;-79
2022/10/19 06:27:44;;;;;;;;;;;;;;;11.90;69.34;102273.31;5004330;28;19925;-78
2022/10/19 06:30:09;;;;;;;;;;;;;;;11.91;69.54;102277.66;5006679;28;19926;-78
2022/10/19 06:32:34;;;;;;;;;;;;;;;11.94;69.20;102277.66;4989182;28;20554;-78
2022/10/19 06:35:00;;;;;;;;;;;;;;;11.86;69.21;102283.75;5006091;28;19988;-79
2022/10/19 06:37:25;;;;;;;;;;;;;;;11.89;69.27;102286.34;4988329;28;19936;-78
2022/10/19 06:39:50;;;;;;;;;;;;;;;11.88;70.14;102293.28;5011984;28;19940;-78
2022/10/19 06:42:16;;;;;;;;;;;;;;;11.88;69.76;102301.09;5006241;28;19931;-78
2022/10/19 06:44:41;;;;;;;;;;;;;;;11.83;69.67;102304.56;5007433;28;20012;-78
2022/10/19 06:47:06;;;;;;;;;;;;;;;11.84;69.43;102301.09;5007278;28;19968;-78
2022/10/19 06:49:34;;;;;;;;;;;;;;;11.88;69.51;102305.44;5005401;28;19922;-78
2022/10/19 06:51:59;;;;;;;;;;;;;;;11.88;69.10;102295.88;5004825;28;20016;-78
2022/10/19 06:54:25;;;;;;;;;;;;;;;11.91;69.60;102293.28;5004060;28;20650;-78
2022/10/19 06:56:50;;;;;;;;;;;;;;;11.87;69.78;102293.25;5004414;28;19932;-78
2022/10/19 06:59:16;;;;;;;;;;;;;;;11.79;69.34;102290.69;5004586;28;19964;-78
2022/10/19 07:01:42;;;;;;;;;;;;;;;11.93;69.72;102288.03;5005307;28;19925;-78
2022/10/19 07:04:07;;;;;;;;;;;;;;;11.93;69.62;102290.66;4992356;28;19944;-78
2022/10/19 07:06:32;;;;;;;;;;;;;;;11.82;69.79;102289.81;5005899;28;19930;-78
2022/10/19 07:08:57;;;;;;;;;;;;;;;11.80;69.93;102287.19;5006427;28;19975;-78
2022/10/19 07:11:23;;;;;;;;;;;;;;;11.90;69.62;102286.31;4991202;28;19933;-78
2022/10/19 07:13:52;;;;;;;;;;;;;;;11.87;69.83;102280.25;5003806;28;20288;-78
2022/10/19 07:16:18;;;;;;;;;;;;;;;11.92;69.70;102276.75;5008407;28;19969;-78
2022/10/19 07:18:43;;;;;;;;;;;;;;;11.87;69.41;102277.66;5011297;28;20390;-78
2022/10/19 07:21:13;;;;;;;;;;;;;;;11.80;70.12;102282.00;5009134;28;19921;-78
2022/10/19 07:23:39;;;;;;;;;;;;;;;11.90;70.01;102288.06;5005457;28;19921;-78
2022/10/19 07:26:11;;;;;;;;;;;;;;;11.89;70.04;102295.00;5004482;28;19926;-78
2022/10/19 07:28:36;;;;;;;;;;;;;;;11.86;69.73;102297.59;4995630;28;19922;-78
2022/10/19 07:31:05;;;;;;;;;;;;;;;11.77;69.80;102299.38;5008227;28;19984;-78
2022/10/19 07:33:31;;;;;;;;;;;;;;;11.83;70.18;102297.59;5008051;28;19921;-78
2022/10/19 07:36:04;;;;;;;;;;;;;;;11.97;69.73;102300.19;5008125;28;19922;-78
2022/10/19 07:38:30;;;;;;;;;;;;;;;11.96;69.41;102299.34;4998483;28;20455;-78
2022/10/19 07:41:22;;;;;;;;;;;;;;;11.91;70.10;102302.81;5002755;28;20008;-78
2022/10/19 07:43:47;;;;;;;;;;;;;;;11.91;69.89;102306.28;5003869;28;19929;-78
2022/10/19 07:46:14;;;;;;;;;;;;;;;11.90;69.53;102299.34;4991231;28;20505;-78
2022/10/19 07:48:40;;;;;;;;;;;;;;;11.88;69.73;102293.28;5006581;28;19926;-78
2022/10/19 07:51:06;;;;;;;;;;;;;;;11.91;69.83;102295.00;5005476;28;19925;-78
2022/10/19 07:53:32;;;;;;;;;;;;;;;11.79;69.74;102289.81;5005813;28;20012;-78
2022/10/19 07:56:18;;;;;;;;;;;;;;;11.84;69.55;102293.28;5000632;28;19933;-78
2022/10/19 07:58:43;;;;;;;;;;;;;;;11.83;70.24;102292.41;5002943;28;19994;-78
2022/10/19 08:01:10;;;;;;;;;;;;;;;11.74;69.97;102292.41;5005493;28;19960;-78
2022/10/19 08:03:36;;;;;;;;;;;;;;;11.86;69.89;102286.34;5008812;28;19971;-78
2022/10/19 08:06:02;;;;;;;;;;;;;;;11.83;70.58;102291.56;5003180;28;20341;-78
2022/10/19 08:08:28;;;;;;;;;;;;;;;11.94;70.58;102295.00;5003078;28;19925;-78
2022/10/19 08:10:53;;;;;;;;;;;;;;;11.96;70.59;102298.47;5003555;28;20037;-78
2022/10/19 08:13:18;;;;;;;;;;;;;;;11.86;70.27;102294.16;5006234;28;20397;-78
2022/10/19 08:15:43;;;;;;;;;;;;;;;11.84;69.63;102298.47;5006286;28;19933;-78
2022/10/19 08:18:10;;;;;;;;;;;;;;;12.13;70.12;102303.66;5005433;28;19930;-78
2022/10/19 08:20:35;;;;;;;;;;;;;;;12.09;69.42;102298.44;5005127;28;19922;-78
2022/10/19 08:23:01;;;;;;;;;;;;;;;11.93;69.31;102294.13;5005062;28;19932;-78
2022/10/19 08:25:26;;;;;;;;;;;;;;;11.92;69.08;102291.50;5004264;28;20003;-78
2022/10/19 08:27:51;;;;;;;;;;;;;;;11.95;68.95;102288.91;5002081;28;19925;-78
2022/10/19 08:30:17;;;;;;;;;;;;;;;11.98;69.46;102286.28;5005087;28;19961;-78
2022/10/19 08:32:42;;;;;;;;;;;;;;;11.98;68.68;102288.91;5008563;28;20004;-78
2022/10/19 08:35:07;;;;;;;;;;;;;;;11.98;69.41;102279.34;5004878;28;21005;-79
2022/10/19 08:37:32;;;;;;;;;;;;;;;12.15;69.74;102278.44;4999193;28;19936;-78
2022/10/19 08:39:58;;;;;;;;;;;;;;;12.13;68.59;102277.59;4985599;28;20018;-78
2022/10/19 08:42:31;;;;;;;;;;;;;;;12.02;69.56;102273.28;5007692;28;19921;-78
2022/10/19 08:45:15;;;;;;;;;;;;;;;11.98;69.14;102274.13;5007678;28;19921;-78
2022/10/19 08:47:40;;;;;;;;;;;;;;;12.11;69.34;102274.97;5007037;28;20393;-78
2022/10/19 08:50:25;;;;;;;;;;;;;;;12.19;69.19;102272.31;5000443;28;19979;-78
2022/10/19 08:52:56;;;;;;;;;;;;;;;12.31;68.47;102259.25;5003543;28;19925;-78
2022/10/19 08:55:27;;;;;;;;;;;;;;;12.16;68.74;102252.38;5004042;28;19976;-78
2022/10/19 08:57:52;;;;;;;;;;;;;;;12.12;69.17;102253.28;4991117;28;20387;-77
2022/10/19 09:00:34;;;;;;;;;;;;;;;12.13;69.24;102255.84;5006665;28;19926;-78
2022/10/19 09:02:59;;;;;;;;;;;;;;;12.30;69.14;102254.94;5012690;28;19929;-78
2022/10/19 09:05:43;;;;;;;;;;;;;;;12.32;69.26;102259.25;5007926;28;20016;-78
2022/10/19 09:08:10;;;;;;;;;;;;;;;12.28;69.44;102249.72;5007138;28;19933;-78
2022/10/19 09:10:40;;;;;;;;;;;;;;;12.27;69.34;102250.63;4997287;28;19936;-78
2022/10/19 09:13:11;;;;;;;;;;;;;;;12.34;68.93;102247.09;5010587;28;19952;-78
2022/10/19 09:15:43;;;;;;;;;;;;;;;12.24;70.09;102249.75;5007455;28;19929;-78
2022/10/19 09:18:22;;;;;;;;;;;;;;;12.30;70.05;102257.53;5008889;28;20406;-78
2022/10/19 09:20:49;;;;;;;;;;;;;;;12.37;68.76;102244.47;5006685;28;19957;-78
2022/10/19 09:23:26;;;;;;;;;;;;;;;12.36;68.25;102252.31;5008221;28;19920;-78
2022/10/19 09:25:52;;;;;;;;;;;;;;;12.24;68.60;102247.16;5009676;28;19976;-78
2022/10/19 09:28:20;;;;;;;;;;;;;;;12.17;69.24;102251.50;5010419;28;19933;-78
2022/10/19 09:30:46;;;;;;;;;;;;;;;12.25;68.02;102241.91;5011205;28;20016;-78
2022/10/19 09:33:15;;;;;;;;;;;;;;;12.20;67.82;102241.06;5002570;28;20310;-78
2022/10/19 09:35:43;;;;;;;;;;;;;;;12.38;68.02;102234.91;5007367;28;19918;-78
2022/10/19 09:38:10;;;;;;;;;;;;;;;12.34;67.97;102235.78;5004645;28;19929;-78
2022/10/19 09:40:35;;;;;;;;;;;;;;;12.36;68.66;102242.75;5010482;28;19977;-78
2022/10/19 09:43:18;;;;;;;;;;;;;;;12.37;67.83;102230.56;5009769;28;20014;-78
2022/10/19 09:45:49;;;;;;;;;;;;;;;12.46;68.36;102240.94;5008120;28;20413;-78
2022/10/19 09:48:17;;;;;;;;;;;;;;;12.35;68.30;102235.78;5009844;28;20006;-78
2022/10/19 09:50:43;;;;;;;;;;;;;;;12.45;68.89;102232.25;5006696;28;19921;-77
2022/10/19 09:53:15;;;;;;;;;;;;;;;12.35;68.28;102224.50;5006695;28;19926;-78
2022/10/19 09:55:42;;;;;;;;;;;;;;;12.38;68.45;102224.50;5004969;28;20239;-78
2022/10/19 09:58:07;;;;;;;;;;;;;;;12.35;68.79;102221.91;4991278;28;20337;-78
2022/10/19 10:00:34;;;;;;;;;;;;;;;12.46;68.56;102213.16;5007950;28;19933;-78
2022/10/19 10:03:00;;;;;;;;;;;;;;;12.54;68.97;102224.41;4990841;28;19933;-78
2022/10/19 10:05:30;;;;;;;;;;;;;;;12.57;69.17;102226.16;5005927;28;20004;-78
2022/10/19 10:07:55;;;;;;;;;;;;;;;12.68;68.71;102215.66;5009644;28;19926;-78
2022/10/19 10:10:29;;;;;;;;;;;;;;;12.49;69.22;102213.13;5009438;28;19967;-78
2022/10/19 10:12:56;;;;;;;;;;;;;;;12.53;68.62;102203.59;5007970;28;19937;-78
2022/10/19 10:15:26;;;;;;;;;;;;;;;12.45;69.91;102207.97;5009138;28;20052;-78
2022/10/19 10:17:52;;;;;;;;;;;;;;;12.46;69.43;102200.13;5010131;28;19925;-78
2022/10/19 10:20:29;;;;;;;;;;;;;;;12.40;69.68;102197.53;4994954;28;19935;-78
2022/10/19 10:23:04;;;;;;;;;;;;;;;12.51;70.17;102200.94;5004455;28;19925;-78
2022/10/19 10:25:32;;;;;;;;;;;;;;;12.63;69.46;102200.06;5005930;28;19921;-77
2022/10/19 10:27:59;;;;;;;;;;;;;;;12.57;70.40;102213.13;4991950;28;19921;-78
2022/10/19 10:30:25;;;;;;;;;;;;;;;12.62;70.41;102209.63;5010379;28;20032;-78
2022/10/19 10:32:55;;;;;;;;;;;;;;;12.71;70.02;102206.06;5009885;28;19972;-78
2022/10/19 10:35:36;;;;;;;;;;;;;;;12.73;69.59;102200.84;5018983;28;20394;-78
2022/10/19 10:38:08;;;;;;;;;;;;;;;12.86;69.32;102198.16;5009773;28;19936;-78
2022/10/19 10:40:34;;;;;;;;;;;;;;;12.89;69.93;102192.91;5005454;28;19925;-78
2022/10/19 10:43:07;;;;;;;;;;;;;;;13.03;70.00;102191.03;5008962;28;20004;-78
2022/10/19 10:45:37;;;;;;;;;;;;;;;13.01;69.55;102187.59;5007512;28;19930;-78
2022/10/19 10:48:25;;;;;;;;;;;;;;;12.87;70.50;102180.75;5008262;28;19981;-78
2022/10/19 10:50:51;;;;;;;;;;;;;;;12.98;69.99;102181.53;5008386;28;19945;-78
2022/10/19 10:53:35;;;;;;;;;;;;;;;12.96;69.71;102160.66;5008269;28;20374;-78
2022/10/19 10:56:01;;;;;;;;;;;;;;;12.86;70.27;102172.06;5008443;28;19988;-78
2022/10/19 10:58:36;;;;;;;;;;;;;;;12.95;69.92;102165.91;5005303;28;20358;-78
2022/10/19 11:01:04;;;;;;;;;;;;;;;12.87;70.29;102157.28;5006818;28;19928;-78
2022/10/19 11:03:32;;;;;;;;;;;;;;;12.93;70.56;102155.47;5006981;28;19930;-78
2022/10/19 11:05:58;;;;;;;;;;;;;;;12.91;70.43;102164.19;5007078;28;20462;-78
2022/10/19 11:08:25;;;;;;;;;;;;;;;13.05;71.15;102154.50;4999330;28;19926;-78
2022/10/19 11:10:54;;;;;;;;;;;;;;;13.10;70.40;102142.28;5004052;28;19921;-78
2022/10/19 11:13:26;;;;;;;;;;;;;;;13.15;70.76;102138.75;5007799;28;19928;-78
2022/10/19 11:15:54;;;;;;;;;;;;;;;13.14;70.83;102136.16;4993665;28;19921;-78
2022/10/19 11:18:24;;;;;;;;;;;;;;;13.24;70.71;102135.19;5005646;28;19929;-78
2022/10/19 11:21:12;;;;;;;;;;;;;;;13.27;71.10;102132.53;5002890;28;19934;-77
2022/10/19 11:23:40;;;;;;;;;;;;;;;13.18;71.22;102123.06;4973579;28;19914;-77
2022/10/19 11:26:21;;;;;;;;;;;;;;;13.27;71.07;102116.88;5007696;28;19992;-78
2022/10/19 11:29:02;;;;;;;;;;;;;;;13.32;70.87;102112.47;5006990;28;19926;-78
2022/10/19 11:31:35;;;;;;;;;;;;;;;13.34;70.52;102115.94;5007658;28;19925;-78
2022/10/19 11:34:19;;;;;;;;;;;;;;;13.37;71.04;102108.09;5004202;28;20683;-78
2022/10/19 11:36:45;;;;;;;;;;;;;;;13.43;71.00;102092.34;5009169;28;19928;-78
2022/10/19 11:39:20;;;;;;;;;;;;;;;13.49;71.46;102094.03;5009460;28;20442;-78
2022/10/19 11:41:59;;;;;;;;;;;;;;;13.46;71.76;102096.66;5007737;28;20375;-78
2022/10/19 11:44:24;;;;;;;;;;;;;;;13.53;71.61;102091.34;5001570;28;19921;-78
2022/10/19 11:47:22;;;;;;;;;;;;;;;13.59;72.24;102098.22;5002433;28;19932;-78
2022/10/19 11:50:06;;;;;;;;;;;;;;;13.65;72.07;102082.50;4968062;28;20681;-78
2022/10/19 11:52:45;;;;;;;;;;;;;;;13.75;72.07;102086.75;5006695;28;19925;-78
2022/10/19 11:55:11;;;;;;;;;;;;;;;13.87;72.40;102085.72;5001259;28;20317;-78
2022/10/19 11:57:42;;;;;;;;;;;;;;;13.82;70.66;102083.16;5010020;28;19926;-78
2022/10/19 12:00:12;;;;;;;;;;;;;;;13.69;71.34;102079.88;5008848;28;19933;-78
2022/10/19 12:02:43;;;;;;;;;;;;;;;13.64;71.29;102081.63;5007957;28;20417;-78
2022/10/19 12:05:12;;;;;;;;;;;;;;;13.59;71.49;102057.31;5005386;28;19917;-78
2022/10/19 12:07:48;;;;;;;;;;;;;;;13.61;71.54;102057.31;5004822;28;19940;-78
2022/10/19 12:10:21;;;;;;;;;;;;;;;13.67;71.91;102050.28;5005377;28;19933;-78
2022/10/19 12:12:48;;;;;;;;;;;;;;;13.72;72.12;102050.25;5006549;28;19925;-78
2022/10/19 12:15:19;;;;;;;;;;;;;;;13.76;71.62;102038.84;5006394;28;19932;-78
2022/10/19 12:17:46;;;;;;;;;;;;;;;13.80;71.61;102040.53;5004459;28;19926;-78
2022/10/19 12:20:21;;;;;;;;;;;;;;;13.74;71.62;102032.78;5006967;28;19929;-78
2022/10/19 12:22:48;;;;;;;;;;;;;;;13.81;72.15;102034.44;5000919;28;19975;-78
2022/10/19 12:25:15;;;;;;;;;;;;;;;13.90;71.27;102025.59;5004861;28;20398;-78
2022/10/19 12:27:41;;;;;;;;;;;;;;;13.96;70.78;102026.38;5006390;28;20032;-78
2022/10/19 12:30:12;;;;;;;;;;;;;;;13.90;70.99;102016.03;5008868;28;19921;-78
2022/10/19 12:32:57;;;;;;;;;;;;;;;13.91;71.86;102017.72;5005278;28;20453;-78
2022/10/19 12:35:37;;;;;;;;;;;;;;;13.90;71.66;102010.81;4975942;28;20464;-78
2022/10/19 12:38:05;;;;;;;;;;;;;;;13.91;72.15;101999.44;5005300;28;19925;-78
2022/10/19 12:40:42;;;;;;;;;;;;;;;13.99;71.85;101994.13;5003103;28;19959;-78
2022/10/19 12:43:47;;;;;;;;;;;;;;;14.00;70.98;101990.59;4987522;28;19926;-78